Time;durP1;ratioP1;P1;durP2;ratioP2;P2;SDS_P1;SDS_P2;PMS_P1;PMS_P2;Temp;Humidity;BMP_temperature;BMP_pressure;BME280_temperature;BME280_humidity;BME280_pressure;Samples;Min_cycle;Max_cycle;Signal;HPM_P1;HPM_P2
2021/12/12 00:00:43;;;;;;;34.33;14.77;;;;;;;3.75;100.00;102021.97;4942650;28;20404;-74
2021/12/12 00:03:32;;;;;;;35.15;13.88;;;;;;;3.55;100.00;102009.31;5023413;28;20120;-68
2021/12/12 00:06:02;;;;;;;36.28;15.70;;;;;;;3.47;100.00;101974.13;4984506;28;20484;-68
2021/12/12 00:08:27;;;;;;;32.70;12.88;;;;;;;4.01;100.00;102017.63;5008865;28;20029;-67
2021/12/12 00:10:56;;;;;;;28.30;11.23;;;;;;;3.66;100.00;102029.34;5013302;28;20033;-68
2021/12/12 00:13:35;;;;;;;32.88;13.82;;;;;;;3.84;100.00;102041.22;5027037;28;20427;-72
2021/12/12 00:16:01;;;;;;;33.45;13.25;;;;;;;3.90;100.00;102025.09;5011774;28;20435;-67
2021/12/12 00:18:27;;;;;;;28.60;12.35;;;;;;;3.98;100.00;102017.72;5023319;28;20034;-67
2021/12/12 00:20:53;;;;;;;28.50;11.05;;;;;;;3.57;100.00;101988.88;5028532;28;20038;-68
2021/12/12 00:23:21;;;;;;;29.50;11.85;;;;;;;3.78;100.00;102002.41;5025324;28;20563;-68
2021/12/12 00:25:50;;;;;;;31.13;12.05;;;;;;;3.59;100.00;101988.81;5027463;28;20037;-72
2021/12/12 00:28:19;;;;;;;23.10;11.38;;;;;;;3.71;100.00;101992.88;5026922;28;20017;-73
2021/12/12 00:31:00;;;;;;;30.27;10.18;;;;;;;3.54;100.00;101980.13;5025701;28;20108;-74
2021/12/12 00:33:26;;;;;;;29.23;12.25;;;;;;;3.85;100.00;101995.97;5025989;28;20041;-67
2021/12/12 00:35:52;;;;;;;23.02;10.32;;;;;;;3.74;100.00;101958.25;5025017;28;20038;-72
2021/12/12 00:38:30;;;;;;;21.95;8.05;;;;;;;3.81;100.00;101989.03;5025496;28;20056;-74
2021/12/12 00:40:57;;;;;;;31.70;10.85;;;;;;;3.84;100.00;101978.28;5025068;28;20052;-72
2021/12/12 00:43:26;;;;;;;36.67;11.65;;;;;;;3.82;100.00;101976.63;5011514;28;20021;-73
2021/12/12 00:46:00;;;;;;;16.58;7.50;;;;;;;3.87;100.00;101972.03;5009100;28;20025;-73
2021/12/12 00:48:28;;;;;;;27.50;9.95;;;;;;;4.05;100.00;101979.41;5027718;28;20049;-71
2021/12/12 00:50:58;;;;;;;32.88;10.98;;;;;;;4.08;100.00;101986.44;5028145;28;20022;-74
2021/12/12 00:53:23;;;;;;;24.48;9.23;;;;;;;4.01;100.00;101983.09;5008218;28;20034;-73
2021/12/12 00:55:53;;;;;;;24.65;9.60;;;;;;;3.92;100.00;101969.22;5022940;28;20036;-67
2021/12/12 00:58:22;;;;;;;38.65;12.82;;;;;;;3.95;100.00;101983.31;5024770;28;20151;-73
2021/12/12 01:01:02;;;;;;;25.77;8.55;;;;;;;3.75;100.00;101983.91;5028923;28;20061;-68
2021/12/12 01:03:31;;;;;;;30.85;12.30;;;;;;;4.20;100.00;101983.38;5026469;28;20037;-68
2021/12/12 01:06:07;;;;;;;33.80;11.75;;;;;;;4.14;100.00;101969.41;5020327;28;20052;-67
2021/12/12 01:08:33;;;;;;;31.63;11.82;;;;;;;3.99;100.00;101962.81;5024549;28;20033;-72
2021/12/12 01:11:02;;;;;;;40.63;13.60;;;;;;;4.33;100.00;101970.53;5024420;28;20026;-72
2021/12/12 01:13:27;;;;;;;18.52;8.27;;;;;;;3.91;100.00;101968.38;5025327;28;20040;-67
2021/12/12 01:16:09;;;;;;;23.30;9.02;;;;;;;3.72;100.00;101973.38;5027295;28;20037;-68
2021/12/12 01:18:41;;;;;;;25.00;10.07;;;;;;;4.15;100.00;101963.19;5026179;28;20076;-67
2021/12/12 01:21:13;;;;;;;28.23;11.38;;;;;;;3.97;100.00;101972.59;5026254;28;20033;-67
2021/12/12 01:23:44;;;;;;;23.70;8.18;;;;;;;3.75;100.00;101967.97;5025475;28;20029;-75
2021/12/12 01:26:09;;;;;;;32.90;9.55;;;;;;;3.85;100.00;101969.41;5024951;28;20616;-72
2021/12/12 01:28:42;;;;;;;21.90;7.88;;;;;;;3.84;100.00;101969.47;5023634;28;20033;-71
2021/12/12 01:31:10;;;;;;;31.67;11.68;;;;;;;3.87;100.00;101962.25;5026445;28;20030;-67
2021/12/12 01:33:36;;;;;;;25.67;9.75;;;;;;;3.72;100.00;101968.06;5025599;28;21767;-67
2021/12/12 01:36:12;;;;;;;28.45;11.02;;;;;;;3.86;100.00;101972.94;5023490;28;20040;-67
2021/12/12 01:38:55;;;;;;;26.45;10.00;;;;;;;3.90;100.00;101967.47;5025038;28;20091;-67
2021/12/12 01:41:23;;;;;;;24.38;8.40;;;;;;;3.90;100.00;101963.97;5026732;28;20053;-67
2021/12/12 01:43:50;;;;;;;43.50;11.32;;;;;;;4.17;100.00;101982.59;5024796;28;20071;-67
2021/12/12 01:46:23;;;;;;;32.25;11.38;;;;;;;4.02;100.00;101968.88;5026757;28;20026;-67
2021/12/12 01:48:58;;;;;;;31.60;11.40;;;;;;;3.92;100.00;101958.59;5008103;28;20460;-72
2021/12/12 01:51:24;;;;;;;32.97;10.00;;;;;;;3.93;100.00;101963.88;5029719;28;20120;-72
2021/12/12 01:53:52;;;;;;;19.15;8.63;;;;;;;3.67;100.00;101946.09;5028146;28;20120;-68
2021/12/12 01:56:20;;;;;;;27.08;9.43;;;;;;;4.08;100.00;101977.56;5009954;28;20025;-73
2021/12/12 01:58:49;;;;;;;36.08;11.05;;;;;;;4.00;100.00;101949.44;5005144;28;20411;-70
2021/12/12 02:01:18;;;;;;;28.35;10.88;;;;;;;3.99;100.00;101974.28;5024323;28;20550;-66
2021/12/12 02:03:48;;;;;;;23.27;9.13;;;;;;;3.93;100.00;101953.25;5027495;28;20029;-71
2021/12/12 02:06:16;;;;;;;36.72;11.93;;;;;;;4.10;100.00;101973.09;5025357;28;20055;-71
2021/12/12 02:08:43;;;;;;;28.67;11.45;;;;;;;4.14;100.00;101964.94;5027274;28;20028;-66
2021/12/12 02:11:15;;;;;;;29.10;11.55;;;;;;;3.79;100.00;101977.59;5008063;28;20033;-66
2021/12/12 02:13:43;;;;;;;31.00;9.27;;;;;;;3.87;100.00;101970.22;5026315;28;20040;-66
2021/12/12 02:16:10;;;;;;;32.20;11.27;;;;;;;3.87;100.00;101964.91;5023971;28;20025;-70
2021/12/12 02:18:39;;;;;;;22.95;8.32;;;;;;;3.91;100.00;101973.69;5024884;28;20228;-66
2021/12/12 02:21:21;;;;;;;40.30;14.10;;;;;;;4.10;100.00;101971.31;5006280;28;20080;-66
2021/12/12 02:37:39;;;;;;;40.45;13.55;;;;;;;4.00;100.00;101948.59;5007838;28;20040;-70
2021/12/12 02:40:14;;;;;;;38.13;14.13;;;;;;;4.16;100.00;101957.78;5006145;28;20029;-66
2021/12/12 02:42:40;;;;;;;25.95;11.75;;;;;;;4.04;100.00;101959.06;5024141;28;20017;-65
2021/12/12 02:45:09;;;;;;;35.53;13.57;;;;;;;3.93;100.00;101941.72;5024977;28;20362;-66
2021/12/12 02:47:35;;;;;;;38.97;12.52;;;;;;;3.96;100.00;101950.50;5023782;28;20091;-65
2021/12/12 02:50:17;;;;;;;33.25;11.52;;;;;;;4.20;100.00;101948.81;5025493;28;20144;-66
2021/12/12 02:52:49;;;;;;;42.03;11.98;;;;;;;4.07;100.00;101952.81;5023580;28;20042;-66
2021/12/12 02:55:19;;;;;;;38.58;16.02;;;;;;;4.27;100.00;101935.31;5022472;28;20043;-65
2021/12/12 02:57:45;;;;;;;40.47;14.32;;;;;;;3.97;100.00;101951.34;5023262;28;20080;-67
2021/12/12 03:00:15;;;;;;;41.70;14.23;;;;;;;4.22;100.00;101940.78;5024428;28;20029;-65
2021/12/12 03:02:45;;;;;;;31.27;11.05;;;;;;;3.93;100.00;101928.44;5022505;28;20025;-69
2021/12/12 03:05:14;;;;;;;31.77;9.60;;;;;;;3.96;100.00;101937.22;5024616;28;20026;-71
2021/12/12 03:07:41;;;;;;;33.28;11.13;;;;;;;4.14;100.00;101917.09;5025143;28;20079;-69
2021/12/12 03:10:11;;;;;;;38.42;12.80;;;;;;;4.03;100.00;101925.44;5024426;28;20033;-72
2021/12/12 03:12:38;;;;;;;51.85;14.38;;;;;;;4.26;100.00;101915.81;5003756;28;20092;-69
2021/12/12 03:15:25;;;;;;;46.70;17.58;;;;;;;4.27;100.00;101914.91;5024011;28;20029;-71
2021/12/12 03:17:53;;;;;;;50.00;16.23;;;;;;;4.28;100.00;101913.97;5024295;28;20134;-67
2021/12/12 03:20:32;;;;;;;46.20;20.20;;;;;;;4.38;100.00;101903.03;5022855;28;20032;-67
2021/12/12 03:23:46;;;;;;;41.45;13.90;;;;;;;4.03;100.00;101930.75;5022473;28;20108;-70
2021/12/12 03:26:13;;;;;;;41.17;14.27;;;;;;;3.94;100.00;101893.88;5007089;28;20041;-70
2021/12/12 03:28:41;;;;;;;57.15;19.20;;;;;;;4.13;100.00;101901.22;5022731;28;20021;-69
2021/12/12 03:31:14;;;;;;;50.42;15.85;;;;;;;4.11;100.00;101913.69;5024439;28;20033;-70
2021/12/12 03:33:40;;;;;;;63.92;18.33;;;;;;;4.32;100.00;101897.00;5022836;28;20063;-67
2021/12/12 03:36:08;;;;;;;49.10;16.23;;;;;;;4.27;100.00;101900.75;5024056;28;20029;-71
2021/12/12 03:38:35;;;;;;;47.05;15.48;;;;;;;4.01;100.00;101895.38;5022638;28;20022;-70
2021/12/12 03:41:04;;;;;;;39.83;12.80;;;;;;;4.17;100.00;101897.53;5025246;28;20037;-69
2021/12/12 03:43:30;;;;;;;55.53;20.08;;;;;;;4.21;100.00;101875.25;5024078;28;20026;-70
2021/12/12 03:45:55;;;;;;;50.70;20.63;;;;;;;4.33;100.00;101887.25;5027841;28;20021;-70
2021/12/12 03:48:25;;;;;;;49.20;15.52;;;;;;;4.25;100.00;101898.13;5009843;28;20414;-71
2021/12/12 03:50:53;;;;;;;45.38;16.27;;;;;;;4.31;100.00;101902.38;5028134;28;20488;-66
2021/12/12 03:53:19;;;;;;;42.78;12.52;;;;;;;4.07;100.00;101891.69;5022241;28;20065;-66
2021/12/12 03:55:45;;;;;;;32.58;10.75;;;;;;;4.15;100.00;101899.38;5026954;28;20594;-68
2021/12/12 03:58:12;;;;;;;47.45;15.43;;;;;;;4.22;100.00;101902.69;5026511;28;20044;-65
2021/12/12 04:00:52;;;;;;;49.10;13.50;;;;;;;4.20;100.00;101900.09;5023849;28;20064;-66
2021/12/12 04:03:18;;;;;;;54.28;17.60;;;;;;;4.23;100.00;101892.03;5025382;28;20025;-66
2021/12/12 04:05:46;;;;;;;53.00;15.23;;;;;;;4.17;100.00;101900.19;5026643;28;20044;-67
2021/12/12 04:08:13;;;;;;;51.47;20.40;;;;;;;4.27;100.00;101885.66;5025690;28;20053;-66
2021/12/12 04:10:40;;;;;;;51.78;14.43;;;;;;;4.10;100.00;101894.22;5027555;28;20029;-67
2021/12/12 04:13:05;;;;;;;52.30;18.23;;;;;;;4.35;100.00;101899.56;5025496;28;20037;-66
2021/12/12 04:15:31;;;;;;;40.35;11.40;;;;;;;4.35;100.00;101912.84;5027493;28;20384;-66
2021/12/12 04:17:56;;;;;;;51.35;14.13;;;;;;;4.38;100.00;101911.88;5025236;28;20029;-67
2021/12/12 04:20:29;;;;;;;28.02;9.23;;;;;;;4.40;100.00;101912.69;5029248;28;20029;-66
2021/12/12 04:22:54;;;;;;;40.80;14.93;;;;;;;4.35;100.00;101904.88;5022690;28;22163;-66
2021/12/12 04:25:21;;;;;;;42.78;16.23;;;;;;;4.39;100.00;101915.41;5022861;28;20623;-66
2021/12/12 04:27:46;;;;;;;51.60;17.05;;;;;;;4.63;100.00;101914.56;5026458;28;20037;-69
2021/12/12 04:30:13;;;;;;;36.38;13.40;;;;;;;4.55;100.00;101918.41;5008668;28;20072;-66
2021/12/12 04:32:40;;;;;;;59.97;20.70;;;;;;;4.60;100.00;101919.13;5006915;28;20021;-67
2021/12/12 04:35:19;;;;;;;53.58;18.20;;;;;;;4.55;100.00;101899.78;5024533;28;20407;-66
2021/12/12 04:37:45;;;;;;;24.75;10.27;;;;;;;4.36;100.00;101908.44;5027060;28;20810;-66
2021/12/12 04:40:15;;;;;;;57.17;15.45;;;;;;;4.69;100.00;101892.16;5029031;28;20061;-66
2021/12/12 04:42:41;;;;;;;29.08;9.00;;;;;;;4.53;100.00;101928.22;5027079;28;20556;-67
2021/12/12 04:45:19;;;;;;;58.60;21.05;;;;;;;4.69;100.00;101904.63;5026907;28;20037;-72
2021/12/12 04:50:54;;;;;;;42.03;14.45;;;;;;;4.59;100.00;101894.28;5007962;28;20036;-66
2021/12/12 04:53:32;;;;;;;46.38;19.50;;;;;;;4.75;100.00;101894.63;5022981;28;20029;-70
2021/12/12 04:56:06;;;;;;;52.75;20.98;;;;;;;4.99;100.00;101909.75;5007502;28;20025;-71
2021/12/12 04:58:39;;;;;;;56.35;27.73;;;;;;;4.97;100.00;101907.13;5026074;28;21024;-69
2021/12/12 05:01:10;;;;;;;44.00;19.10;;;;;;;4.93;100.00;101908.16;5023625;28;20029;-71
2021/12/12 05:04:14;;;;;;;49.05;23.77;;;;;;;5.07;100.00;101899.66;5023806;28;20021;-70
2021/12/12 05:06:44;;;;;;;42.85;16.70;;;;;;;4.87;100.00;101908.41;5010246;28;20036;-70
2021/12/12 05:09:15;;;;;;;46.00;19.25;;;;;;;4.88;100.00;101902.16;5010385;28;20025;-70
2021/12/12 05:12:03;;;;;;;50.65;21.00;;;;;;;4.87;100.00;101911.06;5010565;28;20139;-72
2021/12/12 05:14:41;;;;;;;50.95;19.63;;;;;;;4.80;100.00;101913.06;5026934;28;20021;-70
2021/12/12 05:17:13;;;;;;;41.95;18.25;;;;;;;4.94;100.00;101917.88;5009681;28;20078;-66
2021/12/12 05:19:49;;;;;;;20.42;10.23;;;;;;;4.74;100.00;101911.50;5008956;28;20148;-66
2021/12/12 05:22:32;;;;;;;54.88;26.02;;;;;;;5.25;100.00;101906.09;5009602;28;20021;-67
2021/12/12 05:25:03;;;;;;;49.30;17.80;;;;;;;5.14;100.00;101913.63;5009511;28;20021;-66
2021/12/12 05:27:28;;;;;;;40.05;21.55;;;;;;;4.96;100.00;101910.72;5026599;28;20029;-66
2021/12/12 05:29:59;;;;;;;38.10;15.02;;;;;;;4.73;100.00;101909.75;5003901;28;20036;-67
2021/12/12 05:32:25;;;;;;;57.60;23.33;;;;;;;5.01;100.00;101918.53;5025421;28;20112;-66
2021/12/12 05:34:51;;;;;;;50.50;24.75;;;;;;;4.96;100.00;101908.06;5026978;28;20021;-66
2021/12/12 05:37:21;;;;;;;41.75;17.83;;;;;;;4.86;100.00;101912.84;5008643;28;20037;-66
2021/12/12 05:39:47;;;;;;;52.55;19.27;;;;;;;4.83;100.00;101918.28;5026557;28;20030;-67
2021/12/12 05:42:14;;;;;;;56.67;22.20;;;;;;;5.02;100.00;101907.81;5008500;28;20029;-66
2021/12/12 05:44:40;;;;;;;59.33;25.90;;;;;;;4.94;100.00;101902.78;5024571;28;20037;-66
2021/12/12 05:47:07;;;;;;;56.10;26.08;;;;;;;5.06;100.00;101912.13;5007380;28;20136;-66
2021/12/12 05:49:36;;;;;;;57.35;27.90;;;;;;;5.02;100.00;101896.31;5026181;28;20033;-66
2021/12/12 05:52:06;;;;;;;50.55;24.00;;;;;;;4.93;100.00;101898.41;5026161;28;20485;-66
2021/12/12 05:54:31;;;;;;;41.33;19.73;;;;;;;4.80;100.00;101892.66;5025244;28;20057;-66
2021/12/12 05:56:59;;;;;;;56.95;25.45;;;;;;;4.88;100.00;101910.16;5025642;28;20128;-67
2021/12/12 05:59:25;;;;;;;45.65;20.17;;;;;;;4.75;100.00;101897.28;5023254;28;20036;-66
2021/12/12 06:01:50;;;;;;;58.97;22.83;;;;;;;4.93;100.00;101895.75;5024960;28;20025;-70
2021/12/12 06:04:18;;;;;;;37.10;15.98;;;;;;;4.84;100.00;101904.03;5025960;28;20033;-70
2021/12/12 06:06:44;;;;;;;53.10;27.70;;;;;;;5.07;100.00;101910.31;5026592;28;20113;-71
2021/12/12 06:09:11;;;;;;;43.88;17.23;;;;;;;4.88;100.00;101896.84;5009322;28;20128;-72
2021/12/12 06:11:39;;;;;;;43.95;18.40;;;;;;;4.89;100.00;101906.56;5010584;28;20076;-72
2021/12/12 06:14:06;;;;;;;65.55;30.92;;;;;;;5.20;100.00;101908.06;5007520;28;20021;-73
2021/12/12 06:16:33;;;;;;;63.28;29.67;;;;;;;5.01;100.00;101908.75;5008748;28;20480;-70
2021/12/12 06:19:03;;;;;;;58.40;26.25;;;;;;;5.02;100.00;101915.81;5025029;28;20021;-71
2021/12/12 06:21:29;;;;;;;61.85;23.30;;;;;;;4.90;100.00;101921.59;5026350;28;20025;-72
2021/12/12 06:23:55;;;;;;;30.83;14.15;;;;;;;4.84;100.00;101914.69;5026340;28;20037;-72
2021/12/12 06:26:21;;;;;;;45.95;19.67;;;;;;;4.92;100.00;101917.94;5025559;28;20029;-71
2021/12/12 06:28:48;;;;;;;50.63;22.45;;;;;;;5.01;100.00;101915.88;5020797;28;20471;-71
2021/12/12 06:31:13;;;;;;;63.10;25.95;;;;;;;5.18;100.00;101920.56;5022282;28;20033;-70
2021/12/12 06:33:39;;;;;;;32.90;13.77;;;;;;;4.88;100.00;101911.00;5023253;28;20084;-67
2021/12/12 06:36:06;;;;;;;40.22;15.98;;;;;;;5.14;100.00;101924.28;5023259;28;20055;-71
2021/12/12 06:38:33;;;;;;;55.30;24.35;;;;;;;5.13;100.00;101912.75;5022668;28;20040;-72
2021/12/12 06:40:58;;;;;;;58.80;23.75;;;;;;;5.17;100.00;101916.16;5024487;28;20032;-66
2021/12/12 06:43:24;;;;;;;44.28;18.70;;;;;;;5.02;100.00;101914.97;5006645;28;20029;-66
2021/12/12 06:45:50;;;;;;;42.45;18.88;;;;;;;5.09;100.00;101925.31;5022942;28;20040;-67
2021/12/12 06:48:16;;;;;;;42.42;19.48;;;;;;;5.08;100.00;101910.28;5021383;28;20057;-73
2021/12/12 06:50:45;;;;;;;41.75;16.63;;;;;;;5.15;100.00;101902.91;5021692;28;20025;-72
2021/12/12 06:53:13;;;;;;;53.13;26.75;;;;;;;5.51;100.00;101898.88;5021058;28;20034;-71
2021/12/12 06:55:44;;;;;;;45.63;19.83;;;;;;;5.39;100.00;101901.13;5025550;28;20032;-72
2021/12/12 06:58:11;;;;;;;51.38;29.27;;;;;;;5.51;100.00;101880.22;5022480;28;20044;-73
2021/12/12 07:00:37;;;;;;;51.95;26.30;;;;;;;5.52;100.00;101897.94;5024944;28;20029;-71
2021/12/12 07:03:03;;;;;;;45.60;22.92;;;;;;;5.48;100.00;101912.31;5023686;28;20057;-73
2021/12/12 07:05:29;;;;;;;23.95;12.38;;;;;;;5.19;100.00;101909.84;5023491;28;21337;-71
2021/12/12 07:07:55;;;;;;;44.80;19.23;;;;;;;5.32;100.00;101906.72;5024383;28;20616;-72
2021/12/12 07:10:24;;;;;;;41.38;18.88;;;;;;;5.32;100.00;101920.91;5026755;28;20033;-72
2021/12/12 07:12:55;;;;;;;39.50;19.05;;;;;;;5.37;100.00;101918.06;5024384;28;20053;-71
2021/12/12 07:15:21;;;;;;;40.75;17.02;;;;;;;5.42;100.00;101932.06;5007441;28;20072;-72
2021/12/12 07:17:47;;;;;;;38.25;17.77;;;;;;;5.42;100.00;101909.91;5022020;28;20076;-70
2021/12/12 07:20:15;;;;;;;28.83;12.30;;;;;;;5.38;100.00;101947.31;5026643;28;20029;-72
2021/12/12 07:22:40;;;;;;;33.17;12.50;;;;;;;5.43;100.00;101946.28;5010665;28;20136;-73
2021/12/12 07:25:07;;;;;;;38.50;16.58;;;;;;;5.50;100.00;101924.66;5029785;28;20442;-71
2021/12/12 07:27:33;;;;;;;44.45;20.17;;;;;;;5.37;100.00;101913.63;5008245;28;20037;-73
2021/12/12 07:29:59;;;;;;;35.67;14.25;;;;;;;5.56;100.00;101944.84;5028449;28;20041;-73
2021/12/12 07:32:27;;;;;;;28.90;13.40;;;;;;;5.60;100.00;101940.25;5022752;28;20030;-71
2021/12/12 07:34:53;;;;;;;38.38;15.38;;;;;;;5.62;100.00;101952.63;5027566;28;20040;-73
2021/12/12 07:37:19;;;;;;;45.88;18.33;;;;;;;5.61;100.00;101948.22;5012573;28;20029;-67
2021/12/12 07:39:46;;;;;;;34.85;14.25;;;;;;;5.44;100.00;101947.97;5026402;28;20029;-73
2021/12/12 07:42:12;;;;;;;58.67;22.85;;;;;;;5.81;100.00;101949.22;5022933;28;20040;-72
2021/12/12 07:44:40;;;;;;;39.08;16.83;;;;;;;5.65;100.00;101951.63;5026173;28;20025;-72
2021/12/12 07:47:07;;;;;;;35.58;14.18;;;;;;;5.53;100.00;101953.84;5028378;28;20079;-72
2021/12/12 07:49:43;;;;;;;37.58;13.95;;;;;;;5.55;100.00;101953.78;5024451;28;20115;-73
2021/12/12 07:52:12;;;;;;;38.67;12.32;;;;;;;5.61;100.00;101963.31;5026621;28;20550;-73
2021/12/12 07:54:39;;;;;;;34.95;12.85;;;;;;;5.65;100.00;101956.94;5026576;28;20044;-72
2021/12/12 07:57:05;;;;;;;42.55;12.77;;;;;;;5.66;100.00;101942.69;5026835;28;20496;-72
2021/12/12 07:59:33;;;;;;;41.28;15.38;;;;;;;5.76;100.00;101956.53;5025534;28;20517;-73
2021/12/12 08:01:59;;;;;;;50.78;18.75;;;;;;;5.98;100.00;101951.22;5023784;28;20057;-72
2021/12/12 08:04:27;;;;;;;42.50;14.77;;;;;;;5.78;100.00;101968.00;5007649;28;20052;-73
2021/12/12 08:06:52;;;;;;;27.83;12.45;;;;;;;5.80;100.00;101971.47;5025853;28;20032;-73
2021/12/12 08:09:18;;;;;;;40.67;14.77;;;;;;;5.81;100.00;101975.88;5008277;28;20021;-67
2021/12/12 08:11:44;;;;;;;49.65;16.30;;;;;;;5.81;100.00;101971.41;5008500;28;20091;-67
2021/12/12 08:14:14;;;;;;;49.63;15.65;;;;;;;5.86;100.00;101977.41;5026297;28;20112;-67
2021/12/12 08:16:40;;;;;;;46.65;15.80;;;;;;;5.86;100.00;101979.22;5024704;28;20501;-67
2021/12/12 08:19:06;;;;;;;57.10;18.13;;;;;;;5.90;100.00;101978.19;5005202;28;20060;-67
2021/12/12 08:21:33;;;;;;;52.33;17.25;;;;;;;5.97;100.00;101992.97;5024596;28;20109;-74
2021/12/12 08:24:06;;;;;;;47.40;15.35;;;;;;;5.95;100.00;101996.66;5006969;28;20021;-74
2021/12/12 08:26:33;;;;;;;59.38;17.00;;;;;;;6.03;100.00;101999.03;5022343;28;20105;-73
2021/12/12 08:29:05;;;;;;;44.15;15.57;;;;;;;6.00;100.00;102000.03;5023956;28;20033;-73
2021/12/12 08:31:31;;;;;;;52.08;17.92;;;;;;;6.09;100.00;102004.97;5023547;28;20018;-74
2021/12/12 08:33:57;;;;;;;40.75;13.05;;;;;;;6.03;100.00;102007.03;5008223;28;20056;-74
2021/12/12 08:36:22;;;;;;;46.95;17.42;;;;;;;6.27;100.00;102013.19;5026097;28;20033;-73
2021/12/12 08:38:48;;;;;;;47.30;17.08;;;;;;;6.05;100.00;101990.06;5023157;28;20071;-67
2021/12/12 08:41:13;;;;;;;48.97;15.02;;;;;;;6.09;100.00;101999.66;5004028;28;20052;-68
2021/12/12 08:43:39;;;;;;;62.92;22.42;;;;;;;6.12;100.00;101988.84;5025156;28;20028;-74
2021/12/12 08:46:11;;;;;;;50.33;16.10;;;;;;;6.19;100.00;102002.84;5007755;28;20032;-72
2021/12/12 08:48:43;;;;;;;55.47;17.00;;;;;;;6.20;100.00;101999.25;5024369;28;20018;-73
2021/12/12 08:51:17;;;;;;;58.67;15.63;;;;;;;6.14;100.00;102005.66;5026174;28;20033;-73
2021/12/12 08:53:45;;;;;;;65.32;19.80;;;;;;;6.22;100.00;102001.81;5024053;28;20029;-73
2021/12/12 08:56:18;;;;;;;68.43;19.15;;;;;;;6.23;100.00;102012.41;5021455;28;20033;-72
2021/12/12 08:58:44;;;;;;;72.68;23.15;;;;;;;6.28;100.00;102012.25;5026586;28;20017;-74
2021/12/12 09:01:12;;;;;;;52.95;16.27;;;;;;;6.26;100.00;102011.44;5021832;28;20033;-67
2021/12/12 09:03:41;;;;;;;56.80;17.55;;;;;;;6.44;100.00;102020.50;5026617;28;20108;-67
2021/12/12 09:06:10;;;;;;;59.22;16.35;;;;;;;6.28;100.00;102012.25;5025547;28;20021;-67
2021/12/12 09:08:40;;;;;;;43.55;15.35;;;;;;;6.38;100.00;102021.59;5026282;28;20447;-67
2021/12/12 09:11:32;;;;;;;60.28;20.92;;;;;;;6.36;100.00;102027.94;5025636;28;20029;-67
2021/12/12 09:14:11;;;;;;;45.67;12.93;;;;;;;6.38;100.00;102021.59;5021510;28;20025;-68
2021/12/12 09:16:41;;;;;;;78.57;21.10;;;;;;;6.58;100.00;102039.44;5026577;28;21468;-68
2021/12/12 09:19:13;;;;;;;49.05;17.13;;;;;;;6.47;100.00;102047.06;5024313;28;20029;-67
2021/12/12 09:22:01;;;;;;;44.92;13.40;;;;;;;6.43;100.00;102045.44;5025441;28;20457;-73
2021/12/12 09:24:44;;;;;;;51.20;15.77;;;;;;;6.62;100.00;102036.66;5024969;28;20032;-73
2021/12/12 09:27:14;;;;;;;50.75;15.70;;;;;;;6.60;100.00;102055.41;5022649;28;20025;-67
2021/12/12 09:29:43;;;;;;;46.60;14.77;;;;;;;6.49;100.00;102049.66;5022241;28;20547;-73
2021/12/12 09:32:13;;;;;;;51.20;15.27;;;;;;;6.57;100.00;102050.19;5023234;28;20168;-71
2021/12/12 09:35:00;;;;;;;54.58;17.00;;;;;;;6.50;100.00;102060.25;5026742;28;20036;-72
2021/12/12 09:37:32;;;;;;;73.10;26.05;;;;;;;6.60;100.00;102053.59;5022636;28;20459;-73
2021/12/12 09:40:12;;;;;;;60.05;16.05;;;;;;;6.57;100.00;102059.06;5023098;28;20095;-74
2021/12/12 09:42:57;;;;;;;53.13;16.10;;;;;;;6.60;100.00;102064.28;5023808;28;20083;-73
2021/12/12 09:46:00;;;;;;;62.08;16.88;;;;;;;6.68;100.00;102066.63;5009230;28;20502;-73
2021/12/12 09:51:38;;;;;;;55.40;16.73;;;;;;;6.75;100.00;102068.09;5022936;28;20049;-67
2021/12/12 09:54:47;;;;;;;70.85;23.38;;;;;;;6.94;100.00;102048.63;5002964;28;20753;-67
2021/12/12 09:57:25;;;;;;;49.83;13.10;;;;;;;6.87;100.00;102069.38;4977883;28;20045;-67
2021/12/12 10:00:12;;;;;;;56.30;13.98;;;;;;;6.81;100.00;102071.47;5018764;28;20708;-67
2021/12/12 10:02:41;;;;;;;52.08;15.15;;;;;;;6.83;100.00;102065.09;5025167;28;20037;-67
2021/12/12 10:05:32;;;;;;;63.17;22.27;;;;;;;7.08;100.00;102073.88;5027164;28;20034;-67
2021/12/12 10:08:03;;;;;;;55.08;14.13;;;;;;;6.86;100.00;102067.66;5022565;28;20063;-67
2021/12/12 10:10:33;;;;;;;46.80;11.52;;;;;;;6.90;100.00;102074.59;5024410;28;20025;-67
2021/12/12 10:13:03;;;;;;;45.03;12.30;;;;;;;6.94;100.00;102053.13;5021528;28;20021;-71
2021/12/12 10:15:29;;;;;;;63.38;17.42;;;;;;;6.90;100.00;102066.59;5021692;28;20025;-72
2021/12/12 10:17:59;;;;;;;63.45;17.58;;;;;;;6.96;100.00;102064.59;5022857;28;20064;-73
2021/12/12 10:20:30;;;;;;;75.03;20.17;;;;;;;6.95;100.00;102062.88;5024062;28;20112;-66
2021/12/12 10:23:16;;;;;;;40.55;12.00;;;;;;;6.87;100.00;102082.75;5006202;28;20498;-66
2021/12/12 10:25:56;;;;;;;81.97;20.55;;;;;;;7.11;100.00;102073.75;5021005;28;20189;-73
2021/12/12 10:28:26;;;;;;;48.53;12.70;;;;;;;6.98;100.00;102068.06;5005122;28;20055;-67
2021/12/12 10:31:02;;;;;;;61.40;15.43;;;;;;;6.98;100.00;102070.75;5019401;28;20124;-67
2021/12/12 10:33:55;;;;;;;42.92;11.88;;;;;;;6.93;100.00;102060.25;5003580;28;20060;-67
2021/12/12 10:36:57;;;;;;;69.10;18.65;;;;;;;6.95;100.00;102070.88;5007820;28;20083;-66
2021/12/12 10:39:26;;;;;;;52.55;14.20;;;;;;;6.97;100.00;102069.84;5022039;28;20033;-73
2021/12/12 10:42:14;;;;;;;72.47;16.27;;;;;;;6.99;100.00;102070.66;5005815;28;20025;-72
2021/12/12 10:44:45;;;;;;;42.35;12.05;;;;;;;6.94;100.00;102072.66;5020045;28;20029;-72
2021/12/12 10:47:28;;;;;;;65.90;20.95;;;;;;;7.10;100.00;102072.00;5006681;28;20029;-70
2021/12/12 10:50:15;;;;;;;59.85;15.02;;;;;;;7.11;100.00;102077.28;5023946;28;20080;-71
2021/12/12 10:52:44;;;;;;;59.35;17.45;;;;;;;7.01;100.00;102054.59;5018981;28;20579;-74
2021/12/12 10:55:30;;;;;;;60.92;15.00;;;;;;;7.14;100.00;102068.28;5025596;28;20550;-72
2021/12/12 10:58:00;;;;;;;44.38;11.73;;;;;;;7.08;100.00;102066.72;5004619;28;20041;-72
2021/12/12 11:00:34;;;;;;;56.22;14.70;;;;;;;7.05;100.00;102061.50;5011099;28;20080;-72
2021/12/12 11:03:00;;;;;;;67.25;17.80;;;;;;;7.23;100.00;102073.19;5022971;28;20113;-72
2021/12/12 11:05:36;;;;;;;60.35;16.60;;;;;;;7.23;100.00;102065.19;5022383;28;20104;-71
2021/12/12 11:08:37;;;;;;;49.85;12.25;;;;;;;7.28;100.00;102065.00;5014868;28;20095;-71
2021/12/12 11:11:19;;;;;;;46.28;12.27;;;;;;;7.17;100.00;102047.63;5022566;28;20036;-72
2021/12/12 11:14:02;;;;;;;40.42;12.40;;;;;;;7.37;100.00;102059.22;5024125;28;20025;-72
2021/12/12 11:16:31;;;;;;;37.75;9.70;;;;;;;7.40;100.00;102063.59;5023977;28;20025;-72
2021/12/12 11:19:16;;;;;;;52.95;14.30;;;;;;;7.32;100.00;102063.91;5003794;28;20560;-71
2021/12/12 11:21:49;;;;;;;54.78;14.20;;;;;;;7.28;100.00;102023.13;5006564;28;20071;-71
2021/12/12 11:24:32;;;;;;;47.72;10.80;;;;;;;7.23;100.00;102049.16;5005715;28;20688;-71
2021/12/12 11:27:07;;;;;;;56.72;19.02;;;;;;;7.44;100.00;102067.84;5002038;28;20623;-72
2021/12/12 11:29:48;;;;;;;41.63;12.10;;;;;;;7.39;100.00;102056.50;5023402;28;20017;-72
2021/12/12 11:32:29;;;;;;;62.10;22.05;;;;;;;7.50;100.00;102063.09;5004507;28;20029;-72
2021/12/12 11:34:57;;;;;;;49.42;18.13;;;;;;;7.46;100.00;102060.63;5020991;28;20172;-72
2021/12/12 11:37:33;;;;;;;50.40;12.73;;;;;;;7.46;100.00;102052.59;5019967;28;20025;-72
2021/12/12 11:40:07;;;;;;;57.10;16.80;;;;;;;7.40;100.00;102055.56;5004975;28;20026;-71
2021/12/12 11:42:41;;;;;;;51.45;18.30;;;;;;;7.44;100.00;102049.13;5022582;28;20033;-71
2021/12/12 11:45:14;;;;;;;50.13;15.90;;;;;;;7.39;100.00;102054.69;5003700;28;20046;-70
2021/12/12 11:47:58;;;;;;;54.83;15.05;;;;;;;7.43;100.00;102053.63;5005133;28;20144;-72